Time;durP1;ratioP1;P1;durP2;ratioP2;P2;SDS_P1;SDS_P2;PMS_P1;PMS_P2;Temp;Humidity;BMP_temperature;BMP_pressure;BME280_temperature;BME280_humidity;BME280_pressure;Samples;Min_cycle;Max_cycle;Signal;HPM_P1;HPM_P2
2023/09/24 00:01:13;;;;;;;13.88;4.30;;;;;;;20.64;53.93;94613.97;5090898;28;20035;-71
2023/09/24 00:03:38;;;;;;;16.67;4.28;;;;;;;20.56;53.92;94614.16;5089512;28;20482;-71
2023/09/24 00:06:09;;;;;;;18.50;4.63;;;;;;;20.52;53.86;94611.03;5089402;28;20043;-71
2023/09/24 00:08:34;;;;;;;13.65;4.32;;;;;;;20.53;54.04;94623.28;5089627;28;20032;-71
2023/09/24 00:11:00;;;;;;;17.17;4.78;;;;;;;20.43;54.13;94612.22;5090500;28;20032;-72
2023/09/24 00:13:26;;;;;;;14.80;4.35;;;;;;;20.55;54.16;94624.91;5089315;28;20040;-71
2023/09/24 00:15:51;;;;;;;17.63;4.95;;;;;;;20.43;54.37;94619.31;5090494;28;20509;-71
2023/09/24 00:18:17;;;;;;;15.82;4.80;;;;;;;20.36;54.66;94624.53;5072485;28;20395;-71
2023/09/24 00:20:43;;;;;;;20.38;4.40;;;;;;;20.28;54.69;94629.94;5090449;28;20032;-71
2023/09/24 00:23:10;;;;;;;14.15;4.68;;;;;;;20.27;54.67;94620.41;5089328;28;20097;-71
2023/09/24 00:25:36;;;;;;;15.95;4.78;;;;;;;20.28;54.68;94622.03;5072654;28;20059;-71
2023/09/24 00:28:02;;;;;;;13.93;4.45;;;;;;;20.36;54.48;94619.25;5090647;28;20056;-71
2023/09/24 00:30:27;;;;;;;17.30;4.45;;;;;;;20.29;54.67;94613.13;5090348;28;20020;-71
2023/09/24 00:32:57;;;;;;;15.43;4.25;;;;;;;20.29;54.47;94611.28;5090451;28;20047;-71
2023/09/24 00:35:22;;;;;;;13.88;4.63;;;;;;;20.32;54.38;94604.81;5090312;28;20028;-71
2023/09/24 00:37:48;;;;;;;20.00;4.00;;;;;;;20.43;56.06;94614.03;5092668;28;20039;-71
2023/09/24 00:40:13;;;;;;;20.70;4.20;;;;;;;20.29;55.22;94610.47;5094004;28;20386;-71
2023/09/24 00:42:39;;;;;;;17.00;4.45;;;;;;;20.31;54.33;94611.13;5094015;28;20036;-71
2023/09/24 00:45:10;;;;;;;19.75;4.40;;;;;;;20.20;55.02;94604.53;5093862;28;20031;-71
2023/09/24 00:47:37;;;;;;;16.60;4.50;;;;;;;20.17;55.30;94604.09;5093896;28;20438;-71
2023/09/24 00:50:04;;;;;;;11.23;4.22;;;;;;;20.02;55.23;94612.91;5092515;28;20173;-71
2023/09/24 00:52:29;;;;;;;21.90;4.15;;;;;;;20.19;54.56;94607.34;5092384;28;20123;-71
2023/09/24 00:54:56;;;;;;;13.80;3.95;;;;;;;20.34;54.54;94613.38;5092437;28;20035;-71
2023/09/24 00:57:23;;;;;;;15.43;4.35;;;;;;;20.25;54.95;94614.50;5092316;28;20056;-71
2023/09/24 00:59:48;;;;;;;11.75;3.67;;;;;;;20.30;55.46;94606.84;5092632;28;20401;-71
2023/09/24 01:02:14;;;;;;;16.13;5.22;;;;;;;20.24;54.80;94603.13;5092224;28;20032;-71
2023/09/24 01:04:39;;;;;;;15.30;4.07;;;;;;;20.37;54.67;94607.72;5092312;28;20430;-71
2023/09/24 01:07:05;;;;;;;13.40;4.03;;;;;;;20.22;54.83;94606.97;5092218;28;20040;-71
2023/09/24 01:09:30;;;;;;;15.50;4.13;;;;;;;20.15;54.91;94598.22;5093694;28;20028;-71
2023/09/24 01:12:03;;;;;;;15.40;4.28;;;;;;;20.12;54.82;94588.03;5091976;28;20440;-70
2023/09/24 01:14:28;;;;;;;12.98;4.18;;;;;;;20.16;55.03;94584.00;5092169;28;20149;-71
2023/09/24 01:16:54;;;;;;;8.52;3.72;;;;;;;20.10;55.01;94575.03;5091775;28;20040;-71
2023/09/24 01:19:21;;;;;;;13.52;4.07;;;;;;;20.08;55.02;94587.59;5093488;28;20028;-71
2023/09/24 01:21:50;;;;;;;16.85;4.25;;;;;;;20.02;55.89;94599.72;5091766;28;20040;-71
2023/09/24 01:24:15;;;;;;;13.95;4.03;;;;;;;20.01;56.82;94579.63;5091881;28;20089;-71
2023/09/24 01:26:41;;;;;;;13.35;4.05;;;;;;;19.98;56.90;94592.41;5074879;28;20035;-71
2023/09/24 01:29:09;;;;;;;11.80;4.47;;;;;;;19.99;56.09;94592.19;5092940;28;20024;-71
2023/09/24 01:31:36;;;;;;;15.88;4.38;;;;;;;19.80;56.34;94574.38;5091552;28;20032;-71
2023/09/24 01:34:02;;;;;;;17.23;4.40;;;;;;;19.71;56.92;94565.00;5092835;28;20028;-71
2023/09/24 01:36:27;;;;;;;10.73;3.72;;;;;;;19.76;56.16;94567.88;5092871;28;20023;-71
2023/09/24 01:38:53;;;;;;;14.45;3.90;;;;;;;19.86;56.52;94569.19;5091444;28;20036;-71
2023/09/24 01:41:19;;;;;;;14.00;4.82;;;;;;;19.49;56.99;94541.25;5092807;28;20468;-71
2023/09/24 01:43:45;;;;;;;20.05;4.47;;;;;;;19.66;57.14;94567.38;5093149;28;20032;-71
2023/09/24 01:46:13;;;;;;;13.45;3.50;;;;;;;19.63;56.46;94561.44;5092931;28;20040;-71
2023/09/24 01:48:38;;;;;;;12.82;3.67;;;;;;;19.73;56.23;94576.16;5090780;28;20024;-71
2023/09/24 01:51:07;;;;;;;17.20;3.63;;;;;;;19.72;56.13;94571.88;5074450;28;20040;-71
2023/09/24 01:53:34;;;;;;;10.82;3.85;;;;;;;19.79;56.77;94575.41;5074299;28;20127;-71
2023/09/24 01:56:01;;;;;;;13.13;4.05;;;;;;;19.83;56.50;94574.81;5091229;28;20043;-71
2023/09/24 01:58:27;;;;;;;16.63;4.20;;;;;;;19.81;56.08;94583.94;5092386;28;20045;-71
2023/09/24 02:00:52;;;;;;;14.38;3.92;;;;;;;19.78;56.36;94571.13;5092437;28;20042;-71
2023/09/24 02:03:18;;;;;;;14.40;3.92;;;;;;;19.79;56.36;94567.50;5086253;28;20036;-71
2023/09/24 02:05:44;;;;;;;16.40;4.35;;;;;;;19.86;56.21;94565.72;5066212;28;20037;-71
2023/09/24 02:08:10;;;;;;;15.48;4.00;;;;;;;19.72;56.32;94561.34;5092602;28;20105;-71
2023/09/24 02:10:40;;;;;;;11.75;4.05;;;;;;;19.81;56.80;94570.75;5083754;28;20020;-73
2023/09/24 02:13:07;;;;;;;12.77;3.92;;;;;;;19.74;57.35;94577.78;5070430;28;20064;-72
2023/09/24 02:15:32;;;;;;;13.88;4.63;;;;;;;19.65;57.04;94571.81;5070465;28;20035;-72
2023/09/24 02:17:57;;;;;;;24.35;4.60;;;;;;;19.57;57.46;94580.63;5053913;28;20040;-71
2023/09/24 02:20:24;;;;;;;17.30;4.82;;;;;;;19.54;57.65;94582.84;5073631;28;20024;-73
2023/09/24 02:22:53;;;;;;;16.90;4.18;;;;;;;19.66;57.30;94583.19;5080919;28;20032;-69
2023/09/24 02:25:21;;;;;;;12.80;3.83;;;;;;;19.61;57.38;94592.44;5073926;28;20028;-72
2023/09/24 02:27:50;;;;;;;10.93;3.63;;;;;;;19.58;57.70;94595.44;5082350;28;20209;-72
2023/09/24 02:30:15;;;;;;;16.38;4.47;;;;;;;19.52;57.57;94596.19;5089906;28;20414;-72
2023/09/24 02:32:42;;;;;;;13.30;4.55;;;;;;;19.46;57.79;94585.59;5075564;28;20048;-72
2023/09/24 02:35:11;;;;;;;12.68;4.03;;;;;;;19.47;57.76;94580.13;5088411;28;20104;-73
2023/09/24 02:37:40;;;;;;;13.98;4.00;;;;;;;19.48;57.46;94573.06;5087088;28;20093;-72
2023/09/24 02:40:12;;;;;;;15.73;4.35;;;;;;;19.51;57.68;94578.75;5090021;28;20032;-72
2023/09/24 02:42:37;;;;;;;10.05;3.72;;;;;;;19.37;57.90;94575.16;5088175;28;20042;-72
2023/09/24 02:45:05;;;;;;;17.40;4.30;;;;;;;19.37;58.13;94569.91;5088525;28;20035;-71
2023/09/24 02:47:30;;;;;;;16.17;4.18;;;;;;;19.42;58.29;94578.06;5090173;28;20032;-72
2023/09/24 02:49:56;;;;;;;15.07;4.65;;;;;;;19.27;58.31;94568.56;5089063;28;20475;-71
2023/09/24 02:52:22;;;;;;;17.95;4.38;;;;;;;19.34;58.18;94570.28;5091113;28;20032;-72
2023/09/24 02:54:48;;;;;;;12.38;4.18;;;;;;;19.15;58.42;94542.72;5086773;28;20032;-72
2023/09/24 02:57:14;;;;;;;15.10;4.53;;;;;;;19.26;58.72;94574.84;5090506;28;20466;-72
2023/09/24 02:59:39;;;;;;;13.85;4.20;;;;;;;19.42;58.66;94579.88;5088219;28;20027;-72
2023/09/24 03:02:04;;;;;;;15.52;5.07;;;;;;;19.39;58.26;94577.63;5091049;28;20040;-72
2023/09/24 03:04:30;;;;;;;12.02;4.10;;;;;;;19.36;58.68;94568.28;5087304;28;20417;-73
2023/09/24 03:06:56;;;;;;;11.60;3.75;;;;;;;19.32;58.46;94572.28;5088569;28;20635;-72
2023/09/24 03:09:21;;;;;;;14.82;4.05;;;;;;;19.38;58.20;94582.06;5089605;28;20414;-73
2023/09/24 03:11:46;;;;;;;12.80;3.97;;;;;;;19.45;58.13;94579.50;5087972;28;20031;-72
2023/09/24 03:14:12;;;;;;;14.57;4.18;;;;;;;19.32;57.97;94561.75;5071334;28;20051;-72
2023/09/24 03:16:37;;;;;;;14.40;4.25;;;;;;;19.48;58.45;94576.50;5088978;28;20052;-72
2023/09/24 03:19:03;;;;;;;14.70;4.32;;;;;;;19.46;57.91;94567.97;5089252;28;20044;-73
2023/09/24 03:21:28;;;;;;;14.77;4.47;;;;;;;19.47;58.22;94568.78;5088351;28;20532;-72
2023/09/24 03:23:54;;;;;;;13.10;4.05;;;;;;;19.30;57.62;94541.88;5087369;28;20043;-72
2023/09/24 03:26:19;;;;;;;16.00;4.00;;;;;;;19.46;58.04;94577.69;5089497;28;20020;-72
2023/09/24 03:28:46;;;;;;;15.18;4.60;;;;;;;19.40;57.98;94573.97;5087615;28;20412;-73
2023/09/24 03:31:14;;;;;;;13.05;4.00;;;;;;;19.34;58.07;94574.75;5072413;28;20043;-73
2023/09/24 03:33:39;;;;;;;14.05;3.88;;;;;;;19.43;57.90;94584.16;5089521;28;20043;-73
2023/09/24 03:36:07;;;;;;;17.98;4.30;;;;;;;19.34;57.96;94572.09;5087774;28;20032;-72
2023/09/24 03:38:33;;;;;;;15.90;4.50;;;;;;;19.30;57.90;94569.00;5087767;28;20405;-72
2023/09/24 03:40:59;;;;;;;15.75;4.43;;;;;;;19.30;58.08;94565.56;5090128;28;20028;-73
2023/09/24 03:43:24;;;;;;;14.40;4.03;;;;;;;19.28;58.60;94576.31;5072501;28;20093;-72
2023/09/24 03:45:49;;;;;;;20.45;4.70;;;;;;;19.41;57.73;94573.78;5087844;28;20101;-72
2023/09/24 03:48:15;;;;;;;16.95;4.63;;;;;;;19.34;57.95;94570.28;5090357;28;20440;-73
2023/09/24 03:50:40;;;;;;;13.88;4.20;;;;;;;19.27;57.89;94558.03;5088763;28;20036;-73
2023/09/24 03:53:06;;;;;;;9.93;3.80;;;;;;;19.49;57.90;94579.94;5090648;28;20040;-73
2023/09/24 03:55:31;;;;;;;15.30;4.18;;;;;;;19.38;58.22;94583.88;5086351;28;20043;-73
2023/09/24 03:57:56;;;;;;;15.60;4.22;;;;;;;19.52;57.69;94596.19;5054704;28;20559;-73
2023/09/24 04:00:22;;;;;;;16.48;4.30;;;;;;;19.55;57.53;94597.63;5090308;28;20016;-73
2023/09/24 04:02:50;;;;;;;14.98;4.28;;;;;;;19.60;57.37;94601.34;5088629;28;20474;-72
2023/09/24 04:05:19;;;;;;;13.48;4.20;;;;;;;19.42;57.87;94582.53;5053998;28;20031;-72
2023/09/24 04:07:46;;;;;;;15.23;4.18;;;;;;;19.57;57.46;94588.53;5070847;28;20036;-73
2023/09/24 04:10:14;;;;;;;16.08;3.88;;;;;;;19.58;57.61;94598.06;5072424;28;20028;-73
2023/09/24 04:12:46;;;;;;;11.07;3.70;;;;;;;19.69;57.41;94595.97;5086301;28;20040;-73
2023/09/24 04:15:12;;;;;;;16.67;4.50;;;;;;;19.62;57.58;94594.06;5084093;28;20387;-72
2023/09/24 04:17:37;;;;;;;9.95;4.10;;;;;;;19.57;57.68;94590.38;5069160;28;20039;-73
2023/09/24 04:20:03;;;;;;;12.15;4.28;;;;;;;19.45;57.99;94578.69;5092957;28;20475;-73
2023/09/24 04:22:29;;;;;;;14.93;4.40;;;;;;;19.51;58.30;94591.13;5081054;28;20032;-73
2023/09/24 04:24:54;;;;;;;18.48;4.20;;;;;;;19.45;58.98;94603.22;5072771;28;20514;-72
2023/09/24 04:27:23;;;;;;;12.05;4.43;;;;;;;19.46;58.78;94604.84;5074030;28;20032;-73
2023/09/24 04:29:49;;;;;;;15.32;4.60;;;;;;;19.53;58.50;94611.00;5056006;28;20070;-73
2023/09/24 04:32:15;;;;;;;16.83;3.97;;;;;;;19.37;58.82;94605.97;5055805;28;20060;-73
2023/09/24 04:34:41;;;;;;;15.82;4.30;;;;;;;19.48;58.82;94616.00;5073716;28;20387;-73
2023/09/24 04:37:06;;;;;;;17.60;4.28;;;;;;;19.47;58.81;94626.72;5073788;28;20119;-73
2023/09/24 04:39:32;;;;;;;17.20;5.18;;;;;;;19.49;58.96;94630.81;5073807;28;20024;-73
2023/09/24 04:41:58;;;;;;;11.65;4.35;;;;;;;19.44;59.10;94648.97;5072379;28;20116;-72
2023/09/24 04:44:23;;;;;;;13.80;4.03;;;;;;;19.47;59.37;94645.16;5073602;28;20035;-72
2023/09/24 04:46:49;;;;;;;14.02;4.13;;;;;;;19.49;59.53;94667.69;5072280;28;20086;-73
2023/09/24 04:49:14;;;;;;;15.02;4.32;;;;;;;19.68;59.20;94660.22;5072264;28;20036;-73
2023/09/24 04:51:39;;;;;;;13.73;4.32;;;;;;;19.71;58.93;94671.19;5072596;28;20058;-73
2023/09/24 04:54:05;;;;;;;12.85;4.38;;;;;;;19.66;59.19;94667.50;5073368;28;20426;-72
2023/09/24 04:56:30;;;;;;;12.82;4.28;;;;;;;19.42;59.98;94670.25;5072120;28;20104;-72
2023/09/24 04:58:56;;;;;;;14.10;4.45;;;;;;;19.43;60.27;94676.34;5055513;28;20049;-73
2023/09/24 05:01:22;;;;;;;10.27;4.07;;;;;;;19.60;60.50;94679.56;5072056;28;20020;-73
2023/09/24 05:03:51;;;;;;;15.98;4.38;;;;;;;19.69;59.52;94675.03;5055281;28;20124;-73
2023/09/24 05:06:18;;;;;;;22.60;4.95;;;;;;;19.57;59.04;94678.09;5055280;28;20021;-73
2023/09/24 05:08:43;;;;;;;14.35;4.15;;;;;;;19.66;59.82;94672.75;5072134;28;20120;-73
2023/09/24 05:11:12;;;;;;;15.82;4.70;;;;;;;19.75;59.80;94676.91;5071907;28;20021;-73
2023/09/24 05:13:38;;;;;;;17.98;4.53;;;;;;;19.62;59.20;94678.38;5072894;28;20036;-72
2023/09/24 05:16:03;;;;;;;12.65;4.13;;;;;;;19.44;59.63;94667.41;5071850;28;20051;-73
2023/09/24 05:18:29;;;;;;;13.30;4.28;;;;;;;19.73;60.83;94663.13;5071949;28;20074;-72
2023/09/24 05:20:55;;;;;;;8.38;3.97;;;;;;;19.79;59.98;94667.63;5055197;28;20033;-72
2023/09/24 05:23:21;;;;;;;11.35;4.28;;;;;;;19.81;60.49;94671.72;5072113;28;20037;-73
2023/09/24 05:25:47;;;;;;;12.35;4.20;;;;;;;19.77;60.63;94674.91;5071601;28;20036;-73
2023/09/24 05:28:13;;;;;;;14.38;4.68;;;;;;;19.88;60.39;94669.13;5071451;28;20033;-73
2023/09/24 05:30:39;;;;;;;12.80;4.00;;;;;;;19.81;58.58;94640.09;5071852;28;20111;-73
2023/09/24 05:33:04;;;;;;;13.07;4.00;;;;;;;20.02;59.99;94657.72;5071221;28;20425;-73
2023/09/24 05:35:31;;;;;;;12.60;4.07;;;;;;;20.07;59.62;94647.41;5054751;28;20024;-73
2023/09/24 05:37:57;;;;;;;12.35;4.18;;;;;;;20.47;59.10;94676.75;5054932;28;20043;-73
2023/09/24 05:40:22;;;;;;;12.35;3.78;;;;;;;20.63;59.08;94678.34;5072619;28;20021;-73
2023/09/24 05:42:47;;;;;;;10.77;4.28;;;;;;;20.85;58.09;94676.44;5072761;28;20039;-73
2023/09/24 05:45:13;;;;;;;13.57;4.47;;;;;;;21.29;57.13;94691.13;5072564;28;20402;-73
2023/09/24 05:47:38;;;;;;;14.45;4.78;;;;;;;21.72;56.30;94663.66;5072618;28;20036;-73
2023/09/24 05:50:04;;;;;;;12.85;4.53;;;;;;;21.92;53.60;94674.28;5071236;28;20418;-72
2023/09/24 05:52:30;;;;;;;12.68;4.45;;;;;;;22.26;52.60;94676.81;5072371;28;20529;-73
2023/09/24 05:54:56;;;;;;;16.17;4.70;;;;;;;22.48;52.89;94673.97;5072546;28;20402;-73
2023/09/24 05:57:21;;;;;;;13.82;4.25;;;;;;;23.07;52.38;94682.91;5070869;28;20099;-73
2023/09/24 05:59:47;;;;;;;13.90;4.15;;;;;;;23.20;51.46;94673.06;5072185;28;20089;-73
2023/09/24 06:02:12;;;;;;;14.90;4.35;;;;;;;23.62;51.45;94676.19;5072026;28;20085;-74
2023/09/24 06:04:38;;;;;;;18.60;4.85;;;;;;;23.91;49.92;94659.97;5072320;28;20070;-71
2023/09/24 06:07:03;;;;;;;13.75;4.32;;;;;;;24.19;49.39;94683.47;5070853;28;20036;-71
2023/09/24 06:09:30;;;;;;;11.85;4.28;;;;;;;23.98;48.85;94677.44;5072032;28;20410;-71
2023/09/24 06:11:55;;;;;;;13.07;4.20;;;;;;;24.48;47.69;94685.50;5070561;28;20043;-71
2023/09/24 06:14:21;;;;;;;18.23;4.13;;;;;;;24.73;46.21;94690.00;5072254;28;20017;-71
2023/09/24 06:16:46;;;;;;;15.32;4.70;;;;;;;25.01;45.74;94684.22;5092266;28;20032;-71
2023/09/24 06:19:11;;;;;;;13.77;5.05;;;;;;;25.33;45.34;94690.28;5092075;28;20558;-71
2023/09/24 06:21:37;;;;;;;15.55;4.35;;;;;;;25.41;44.63;94684.66;5090794;28;20027;-71
2023/09/24 06:24:02;;;;;;;10.77;4.38;;;;;;;25.53;44.29;94682.06;5073401;28;20051;-70
2023/09/24 06:26:30;;;;;;;20.55;5.18;;;;;;;25.32;45.34;94688.63;5090649;28;20024;-71
2023/09/24 06:28:56;;;;;;;15.60;4.68;;;;;;;24.76;45.94;94689.56;5090591;28;20024;-71
2023/09/24 06:31:21;;;;;;;12.70;4.32;;;;;;;24.92;46.14;94681.03;5090645;28;20475;-71
2023/09/24 06:33:46;;;;;;;15.18;4.50;;;;;;;25.05;44.76;94674.78;5091513;28;20325;-71
2023/09/24 06:36:12;;;;;;;22.27;5.15;;;;;;;24.60;45.63;94672.34;5073289;28;20036;-71
2023/09/24 06:38:37;;;;;;;21.20;4.55;;;;;;;24.84;45.37;94667.22;5090618;28;20482;-71
2023/09/24 06:41:03;;;;;;;16.90;4.88;;;;;;;25.05;44.18;94677.47;5091658;28;20036;-71
2023/09/24 06:43:29;;;;;;;20.65;4.55;;;;;;;24.90;44.83;94688.41;5090241;28;20028;-71
2023/09/24 06:45:55;;;;;;;19.45;4.93;;;;;;;24.57;44.99;94679.91;5069996;28;20032;-71
2023/09/24 06:48:24;;;;;;;14.38;4.00;;;;;;;24.46;45.30;94687.59;5070730;28;20032;-72
2023/09/24 06:50:49;;;;;;;13.85;4.07;;;;;;;24.86;44.74;94679.25;5073753;28;20081;-72
2023/09/24 06:53:15;;;;;;;18.75;4.70;;;;;;;24.90;44.27;94672.47;5073082;28;20085;-73
2023/09/24 06:55:41;;;;;;;12.40;4.40;;;;;;;24.76;44.65;94684.25;5090464;28;20595;-72
2023/09/24 06:58:06;;;;;;;15.25;4.53;;;;;;;24.85;44.51;94679.47;5090249;28;20532;-72
2023/09/24 07:00:32;;;;;;;16.58;4.63;;;;;;;24.85;44.80;94680.31;5090063;28;20501;-70
2023/09/24 07:02:57;;;;;;;16.00;4.85;;;;;;;24.79;44.74;94675.03;5090125;28;20046;-72
2023/09/24 07:05:23;;;;;;;10.98;4.38;;;;;;;25.22;44.50;94672.41;5090129;28;20027;-71
2023/09/24 07:07:48;;;;;;;12.90;4.65;;;;;;;25.63;43.15;94677.03;5091230;28;20047;-70
2023/09/24 07:10:14;;;;;;;21.13;5.15;;;;;;;25.56;43.73;94675.50;5091235;28;20032;-72
2023/09/24 07:12:40;;;;;;;15.45;4.88;;;;;;;25.39;43.81;94662.78;5088439;28;20047;-72
2023/09/24 07:15:07;;;;;;;16.98;4.90;;;;;;;25.44;43.80;94671.97;5089009;28;20063;-72
2023/09/24 07:17:32;;;;;;;19.92;5.97;;;;;;;25.58;43.92;94674.22;5091249;28;20565;-72
2023/09/24 07:19:58;;;;;;;14.20;4.65;;;;;;;26.06;44.79;94665.44;5091089;28;20039;-72
2023/09/24 07:22:26;;;;;;;18.52;5.05;;;;;;;26.23;43.13;94659.47;5089874;28;20050;-72
2023/09/24 07:24:52;;;;;;;14.05;4.55;;;;;;;26.22;42.83;94677.28;5088133;28;20493;-72
2023/09/24 07:27:19;;;;;;;15.75;4.65;;;;;;;26.04;42.99;94672.81;5088775;28;20036;-72
2023/09/24 07:29:45;;;;;;;21.20;5.25;;;;;;;26.26;42.30;94675.78;5072963;28;20533;-71
2023/09/24 07:32:11;;;;;;;13.40;4.75;;;;;;;26.25;42.46;94678.69;5090885;28;20042;-72
2023/09/24 07:34:36;;;;;;;17.08;4.30;;;;;;;26.12;42.63;94669.03;5089692;28;20027;-72
2023/09/24 07:37:03;;;;;;;18.38;4.28;;;;;;;26.04;43.02;94664.03;5091021;28;20035;-72
2023/09/24 07:39:29;;;;;;;12.27;4.20;;;;;;;26.38;42.27;94669.69;5090797;28;20024;-72
2023/09/24 07:41:55;;;;;;;17.48;4.70;;;;;;;26.05;42.57;94663.81;5090830;28;20029;-72
2023/09/24 07:44:20;;;;;;;15.48;5.15;;;;;;;25.99;42.94;94669.22;5090829;28;20103;-72
2023/09/24 07:46:48;;;;;;;11.38;4.07;;;;;;;26.02;43.25;94643.00;5091512;28;20030;-69
2023/09/24 07:49:14;;;;;;;12.68;3.95;;;;;;;26.19;42.09;94653.78;5093718;28;20043;-72
2023/09/24 07:51:40;;;;;;;12.85;4.95;;;;;;;26.20;42.33;94659.94;5093164;28;20081;-71
2023/09/24 07:54:06;;;;;;;15.27;4.28;;;;;;;26.46;41.83;94662.16;5089425;28;20028;-70
2023/09/24 07:56:32;;;;;;;14.20;4.60;;;;;;;26.72;41.25;94646.84;5078495;28;20521;-71
2023/09/24 07:58:57;;;;;;;14.05;4.20;;;;;;;26.59;41.04;94647.88;5077064;28;20048;-71
2023/09/24 08:01:23;;;;;;;16.33;4.30;;;;;;;26.56;41.93;94652.84;5078817;28;20509;-71
2023/09/24 08:03:49;;;;;;;15.77;4.95;;;;;;;26.86;41.46;94636.75;5091650;28;20058;-71
2023/09/24 08:06:14;;;;;;;18.13;4.20;;;;;;;26.83;41.47;94643.38;5086314;28;20039;-72
2023/09/24 08:08:40;;;;;;;13.55;3.67;;;;;;;27.17;40.66;94639.06;5082552;28;20051;-71
2023/09/24 08:11:05;;;;;;;15.75;4.55;;;;;;;27.29;40.09;94643.56;5075495;28;20091;-71
2023/09/24 08:13:31;;;;;;;15.93;4.38;;;;;;;27.30;38.69;94647.84;5061871;28;20418;-71
2023/09/24 08:15:56;;;;;;;17.60;4.50;;;;;;;27.05;39.10;94635.59;5092813;28;20020;-71
2023/09/24 08:18:24;;;;;;;22.30;5.30;;;;;;;26.69;39.90;94639.28;5082941;28;20031;-70
2023/09/24 08:20:50;;;;;;;17.38;4.22;;;;;;;26.65;40.19;94636.28;5069006;28;20036;-70
2023/09/24 08:23:17;;;;;;;13.07;3.55;;;;;;;26.78;40.17;94639.78;5074967;28;20093;-70
2023/09/24 08:25:42;;;;;;;13.40;4.50;;;;;;;26.53;40.52;94638.13;5085194;28;20398;-70
2023/09/24 08:28:11;;;;;;;16.80;4.13;;;;;;;26.64;39.70;94634.66;5088969;28;20093;-72
2023/09/24 08:30:37;;;;;;;15.23;4.38;;;;;;;26.85;39.92;94635.94;5088472;28;20050;-72
2023/09/24 08:33:04;;;;;;;23.00;4.93;;;;;;;26.52;39.97;94629.34;5093386;28;20036;-69
2023/09/24 08:35:29;;;;;;;14.18;4.70;;;;;;;26.39;40.52;94642.84;5075744;28;20059;-70
2023/09/24 08:37:55;;;;;;;17.25;4.50;;;;;;;26.22;40.94;94616.06;5086215;28;20060;-71
2023/09/24 08:40:21;;;;;;;17.42;4.75;;;;;;;26.17;40.93;94629.25;5072937;28;20016;-69
2023/09/24 08:42:47;;;;;;;19.55;4.55;;;;;;;26.13;41.50;94633.38;5072881;28;20029;-71
2023/09/24 08:45:14;;;;;;;16.58;4.00;;;;;;;26.33;41.05;94637.59;5080055;28;20024;-70
2023/09/24 08:47:40;;;;;;;12.18;4.10;;;;;;;25.98;40.92;94636.47;5085905;28;20035;-72
2023/09/24 08:50:06;;;;;;;13.10;4.43;;;;;;;26.40;41.17;94633.00;5071611;28;20394;-72
2023/09/24 08:52:32;;;;;;;14.13;4.70;;;;;;;26.42;41.00;94637.03;5080037;28;20036;-72
2023/09/24 08:54:58;;;;;;;13.60;4.18;;;;;;;25.96;41.60;94633.22;5073453;28;20504;-70
2023/09/24 08:57:23;;;;;;;13.18;4.13;;;;;;;26.27;41.33;94624.19;5088951;28;20054;-70
2023/09/24 08:59:49;;;;;;;17.92;3.97;;;;;;;26.33;41.08;94635.78;5065047;28;20513;-70
2023/09/24 09:02:14;;;;;;;16.00;4.30;;;;;;;26.09;40.48;94618.94;5090367;28;20039;-69
2023/09/24 09:04:49;;;;;;;18.08;4.45;;;;;;;26.10;41.36;94619.72;5090497;28;20432;-70
2023/09/24 09:07:16;;;;;;;12.02;3.95;;;;;;;26.19;41.34;94627.19;5080703;28;20124;-70
2023/09/24 09:09:41;;;;;;;16.70;4.30;;;;;;;26.15;40.50;94623.34;5084593;28;20086;-68
2023/09/24 09:12:17;;;;;;;16.25;4.03;;;;;;;26.14;41.20;94627.03;5054680;28;20029;-70
2023/09/24 09:14:43;;;;;;;16.88;4.10;;;;;;;25.92;41.81;94625.94;5072928;28;20078;-70
2023/09/24 09:17:08;;;;;;;16.05;4.53;;;;;;;25.97;42.17;94623.41;5071646;28;20440;-67
2023/09/24 09:19:52;;;;;;;13.38;4.10;;;;;;;26.08;41.46;94614.66;5074899;28;20028;-69
2023/09/24 09:22:19;;;;;;;14.80;4.15;;;;;;;26.00;40.76;94625.63;5089930;28;20032;-69
2023/09/24 09:24:45;;;;;;;12.52;4.53;;;;;;;25.90;41.11;94618.19;5083304;28;20486;-74
2023/09/24 09:27:11;;;;;;;16.42;4.32;;;;;;;25.83;42.04;94612.16;5074646;28;20032;-73
2023/09/24 09:29:36;;;;;;;16.02;4.28;;;;;;;26.03;42.10;94620.66;5071964;28;20027;-69
2023/09/24 09:32:02;;;;;;;12.35;4.13;;;;;;;26.08;42.21;94620.78;5091043;28;20031;-72
2023/09/24 09:34:28;;;;;;;12.20;3.75;;;;;;;26.03;42.14;94617.19;5087660;28;20020;-69
2023/09/24 09:37:25;;;;;;;15.60;4.47;;;;;;;26.06;41.50;94622.03;5086494;28;20127;-70
2023/09/24 09:39:51;;;;;;;12.95;4.88;;;;;;;25.96;42.03;94624.44;5077034;28;20482;-70
2023/09/24 09:42:19;;;;;;;12.90;3.70;;;;;;;26.05;41.88;94610.59;5092834;28;20392;-70
2023/09/24 09:44:44;;;;;;;15.25;4.32;;;;;;;26.36;42.25;94626.50;5052594;28;20119;-73
2023/09/24 09:47:10;;;;;;;11.93;4.22;;;;;;;26.19;41.10;94616.53;5061378;28;20036;-71
2023/09/24 09:49:35;;;;;;;15.63;4.30;;;;;;;26.26;41.19;94617.22;5070688;28;20398;-71
2023/09/24 09:52:02;;;;;;;16.25;3.90;;;;;;;26.39;42.03;94621.53;5065353;28;20041;-71
2023/09/24 09:54:32;;;;;;;18.00;4.30;;;;;;;26.45;41.09;94623.28;5081870;28;20052;-69
2023/09/24 09:56:58;;;;;;;16.90;4.28;;;;;;;26.28;42.68;94593.84;5078734;28;20457;-71
2023/09/24 09:59:23;;;;;;;16.52;4.30;;;;;;;26.51;41.49;94624.22;5058340;28;20056;-69
2023/09/24 10:01:48;;;;;;;13.57;3.90;;;;;;;26.49;41.89;94616.47;5085032;28;20032;-70
2023/09/24 10:04:14;;;;;;;14.88;4.10;;;;;;;26.53;40.63;94616.84;5064895;28;20031;-71
2023/09/24 10:06:40;;;;;;;12.90;4.25;;;;;;;26.66;40.80;94624.59;5067970;28;20028;-72
2023/09/24 10:09:27;;;;;;;16.23;4.00;;;;;;;26.63;40.76;94621.56;5084834;28;20020;-71
2023/09/24 10:11:53;;;;;;;13.95;4.32;;;;;;;26.62;41.59;94620.75;5090015;28;20036;-71
2023/09/24 10:14:38;;;;;;;12.38;4.32;;;;;;;26.64;40.58;94617.88;5082242;28;20115;-72
2023/09/24 10:17:16;;;;;;;12.43;4.32;;;;;;;26.57;40.72;94627.81;5065089;28;20508;-71
2023/09/24 10:20:06;;;;;;;10.90;4.13;;;;;;;26.55;40.89;94614.75;5078540;28;20028;-71
2023/09/24 10:22:32;;;;;;;;;;;;;;;26.69;40.00;94621.47;5087777;28;20031;-69
2023/09/24 10:24:58;;;;;;;19.30;4.75;;;;;;;26.66;40.94;94616.59;5086574;28;19916;-69
2023/09/24 10:27:31;;;;;;;11.23;4.10;;;;;;;26.65;40.78;94617.63;5061197;28;20040;-70
2023/09/24 10:29:57;;;;;;;11.98;4.18;;;;;;;26.78;40.47;94623.78;5067106;28;20273;-67
2023/09/24 10:32:23;;;;;;;14.70;4.63;;;;;;;26.68;40.29;94614.50;5084379;28;20475;-70
2023/09/24 10:34:54;;;;;;;13.82;4.53;;;;;;;26.58;40.53;94610.78;5083198;28;20032;-68
2023/09/24 10:37:30;;;;;;;14.75;4.30;;;;;;;26.67;40.75;94612.91;5089421;28;20051;-73
2023/09/24 10:40:04;;;;;;;16.13;4.30;;;;;;;26.63;40.59;94621.56;5072594;28;20566;-71
2023/09/24 10:42:33;;;;;;;13.02;3.88;;;;;;;26.48;40.65;94614.00;5089670;28;20409;-72
2023/09/24 10:45:08;;;;;;;11.77;4.15;;;;;;;26.30;41.60;94618.41;5070555;28;20036;-71
2023/09/24 10:47:35;;;;;;;11.35;3.97;;;;;;;26.21;41.82;94616.28;5071622;28;20098;-72
2023/09/24 10:50:06;;;;;;;17.40;4.93;;;;;;;25.86;42.13;94598.41;5058607;28;20032;-72
2023/09/24 10:52:58;;;;;;;16.60;4.55;;;;;;;26.05;42.38;94607.13;5066703;28;20040;-71
2023/09/24 10:55:29;;;;;;;11.75;3.75;;;;;;;26.10;42.61;94601.09;5066594;28;20024;-73
2023/09/24 10:58:05;;;;;;;14.65;4.07;;;;;;;26.16;44.73;94595.69;5089739;28;20322;-73
2023/09/24 11:00:33;;;;;;;14.35;4.38;;;;;;;26.03;42.42;94595.91;5087974;28;20028;-72
2023/09/24 11:03:00;;;;;;;13.10;4.35;;;;;;;25.96;42.75;94595.16;5088422;28;20047;-72
2023/09/24 11:05:26;;;;;;;13.10;4.55;;;;;;;26.14;42.52;94588.97;5051554;28;20025;-72
2023/09/24 11:07:53;;;;;;;12.60;4.35;;;;;;;26.23;43.64;94601.72;5069326;28;20031;-72
2023/09/24 11:10:19;;;;;;;16.10;4.32;;;;;;;26.11;43.20;94578.78;5070474;28;20027;-72
2023/09/24 11:12:56;;;;;;;14.93;4.10;;;;;;;26.17;42.49;94580.53;5050130;28;20032;-72
2023/09/24 11:15:24;;;;;;;13.98;4.20;;;;;;;25.92;41.85;94586.84;5088912;28;20050;-72
2023/09/24 11:17:50;;;;;;;15.65;4.47;;;;;;;25.96;43.74;94581.88;5089723;28;20285;-72
2023/09/24 11:20:22;;;;;;;17.63;4.40;;;;;;;25.97;42.70;94597.63;5055826;28;20115;-72
2023/09/24 11:23:01;;;;;;;10.02;3.80;;;;;;;25.97;42.44;94596.81;5054893;28;20031;-72
2023/09/24 11:25:27;;;;;;;16.27;4.23;;;;;;;25.99;41.75;94576.94;5052884;28;20486;-72